createdAt,value
2022-10-23T00:02:24.246Z,89.70
2022-10-23T00:05:10.250Z,89.70
2022-10-23T00:07:40.007Z,89.70
2022-10-23T00:10:12.699Z,89.67
2022-10-23T00:12:43.445Z,89.52
2022-10-23T00:15:14.489Z,89.40
2022-10-23T00:17:44.679Z,89.30
2022-10-23T00:20:18.247Z,89.26
2022-10-23T00:22:47.246Z,89.25
2022-10-23T00:25:41.961Z,89.29
2022-10-23T00:28:24.528Z,89.15
2022-10-23T00:31:06.971Z,89.05
2022-10-23T00:33:44.173Z,89.21
2022-10-23T00:36:22.462Z,89.40
2022-10-23T00:39:18.456Z,89.50
2022-10-23T00:41:50.900Z,89.70
2022-10-23T00:44:46.193Z,89.72
2022-10-23T00:47:20.466Z,89.67
2022-10-23T00:49:48.339Z,89.67
2022-10-23T00:52:15.839Z,89.66
2022-10-23T00:55:11.886Z,89.70
2022-10-23T00:57:45.186Z,89.79
2022-10-23T01:00:20.285Z,89.77
2022-10-23T01:02:48.267Z,89.73
2022-10-23T01:05:40.499Z,89.61
2022-10-23T01:08:25.016Z,89.63
2022-10-23T01:11:35.266Z,89.78
2022-10-23T01:14:29.577Z,89.90
2022-10-23T01:17:19.046Z,89.99
2022-10-23T01:20:07.268Z,90.00
2022-10-23T01:23:10.434Z,89.92
2022-10-23T01:26:18.494Z,90.00
2022-10-23T01:29:00.695Z,90.22
2022-10-23T01:31:42.103Z,90.39
2022-10-23T01:34:47.949Z,90.43
2022-10-23T01:38:02.118Z,90.40
2022-10-23T01:40:44.886Z,90.40
2022-10-23T01:43:24.900Z,90.35
2022-10-23T01:46:15.076Z,90.36
2022-10-23T01:49:14.825Z,90.44
2022-10-23T01:52:04.129Z,90.47
2022-10-23T01:54:45.209Z,90.40
2022-10-23T01:57:19.862Z,90.38
2022-10-23T02:00:04.169Z,90.20
2022-10-23T02:02:37.888Z,90.14
2022-10-23T02:05:26.945Z,90.37
2022-10-23T02:08:01.844Z,90.59
2022-10-23T02:10:56.100Z,90.53
2022-10-23T02:14:24.222Z,90.39
2022-10-23T02:17:26.173Z,90.51
2022-10-23T02:20:46.173Z,90.64
2022-10-23T02:23:43.247Z,90.78
2022-10-23T02:26:40.441Z,90.96
2022-10-23T02:29:33.693Z,91.00
2022-10-23T02:32:34.501Z,91.10
2022-10-23T02:35:07.084Z,91.05
2022-10-23T02:38:50.805Z,91.00
2022-10-23T02:42:11.902Z,91.12
2022-10-23T02:45:26.003Z,91.55
2022-10-23T02:48:35.466Z,91.67
2022-10-23T02:51:42.108Z,91.72
2022-10-23T02:54:44.001Z,91.56
2022-10-23T02:57:53.102Z,91.44
2022-10-23T03:00:24.105Z,91.24
2022-10-23T03:02:59.895Z,91.17
2022-10-23T03:05:47.030Z,91.10
2022-10-23T03:08:19.939Z,91.03
2022-10-23T03:10:54.211Z,90.99
2022-10-23T03:13:27.596Z,90.88
2022-10-23T03:16:33.407Z,90.84
2022-10-23T03:19:03.971Z,90.67
2022-10-23T03:21:33.971Z,90.61
2022-10-23T03:24:04.478Z,90.58
2022-10-23T03:27:05.669Z,90.50
2022-10-23T03:29:48.067Z,90.40
2022-10-23T03:32:54.139Z,90.22
2022-10-23T03:35:33.910Z,89.95
2022-10-23T03:38:31.087Z,89.90
2022-10-23T03:41:29.030Z,89.87
2022-10-23T03:44:31.329Z,89.88
2022-10-23T03:47:12.273Z,89.83
2022-10-23T03:49:57.366Z,89.73
2022-10-23T03:53:05.490Z,89.65
2022-10-23T03:55:35.935Z,89.58
2022-10-23T03:58:12.729Z,89.58
2022-10-23T04:00:49.066Z,89.58
2022-10-23T04:03:18.576Z,89.50
2022-10-23T04:05:52.077Z,89.42
2022-10-23T04:08:24.415Z,89.45
2022-10-23T04:11:02.315Z,89.46
2022-10-23T04:13:39.790Z,89.48
2022-10-23T04:16:08.846Z,89.35
2022-10-23T04:19:10.918Z,89.34
2022-10-23T04:21:44.569Z,89.40
2022-10-23T04:24:47.469Z,89.40
2022-10-23T04:27:24.097Z,89.36
2022-10-23T04:30:04.323Z,89.42
2022-10-23T04:33:02.655Z,89.51
2022-10-23T04:35:42.285Z,89.52
2022-10-23T04:38:37.710Z,89.44
2022-10-23T04:41:06.247Z,89.46
2022-10-23T04:43:37.959Z,89.40
2022-10-23T04:46:14.936Z,89.33
2022-10-23T04:48:46.510Z,89.34
2022-10-23T04:51:14.714Z,89.43
2022-10-23T04:54:02.272Z,89.47
2022-10-23T04:56:48.378Z,89.41
2022-10-23T04:59:44.709Z,89.38
2022-10-23T05:02:12.175Z,89.36
2022-10-23T05:04:39.555Z,89.31
2022-10-23T05:07:06.716Z,89.34
2022-10-23T05:09:34.115Z,89.49
2022-10-23T05:12:01.435Z,89.51
2022-10-23T05:14:28.624Z,89.50
2022-10-23T05:17:02.236Z,89.47
2022-10-23T05:19:41.055Z,89.54
2022-10-23T05:22:10.197Z,89.70
2022-10-23T05:24:37.716Z,89.59
2022-10-23T05:27:05.095Z,89.76
2022-10-23T05:29:32.396Z,89.75
2022-10-23T05:32:06.295Z,89.80
2022-10-23T05:34:36.275Z,89.83
2022-10-23T05:37:08.497Z,89.90
2022-10-23T05:39:35.975Z,89.95
2022-10-23T05:42:03.278Z,89.83
2022-10-23T05:44:30.717Z,89.72
2022-10-23T05:46:58.236Z,89.63
2022-10-23T05:49:26.143Z,89.60
2022-10-23T05:51:53.516Z,89.47
2022-10-23T05:54:20.715Z,89.48
2022-10-23T05:56:47.936Z,89.56
2022-10-23T05:59:19.066Z,89.53
2022-10-23T06:01:49.427Z,89.47
2022-10-23T06:04:16.798Z,89.43
2022-10-23T06:06:46.595Z,89.49
2022-10-23T06:09:15.195Z,89.36
2022-10-23T06:11:42.994Z,89.11
2022-10-23T06:14:10.697Z,89.04
2022-10-23T06:16:37.935Z,88.96
2022-10-23T06:19:05.317Z,88.87
2022-10-23T06:21:37.196Z,88.90
2022-10-23T06:24:06.959Z,88.86
2022-10-23T06:26:34.423Z,88.99
2022-10-23T06:29:01.798Z,89.07
2022-10-23T06:31:29.297Z,89.27
2022-10-23T06:33:58.876Z,89.21
2022-10-23T06:36:26.996Z,89.02
2022-10-23T06:38:55.945Z,88.93
2022-10-23T06:41:23.475Z,88.81
2022-10-23T06:43:51.635Z,88.70
2022-10-23T06:46:19.782Z,88.67
2022-10-23T06:48:47.176Z,88.68
2022-10-23T06:51:17.275Z,88.70
2022-10-23T06:53:45.756Z,88.70
2022-10-23T06:56:13.576Z,88.62
2022-10-23T06:58:41.495Z,88.42
2022-10-23T07:01:13.131Z,88.32
2022-10-23T07:03:40.551Z,88.24
2022-10-23T07:06:10.877Z,88.06
2022-10-23T07:08:39.077Z,87.94
2022-10-23T07:11:09.258Z,87.81
2022-10-23T07:13:38.296Z,87.81
2022-10-23T07:16:15.427Z,87.82
2022-10-23T07:18:44.415Z,87.84
2022-10-23T07:21:12.076Z,87.75
2022-10-23T07:23:39.383Z,87.70
2022-10-23T07:26:16.701Z,87.71
2022-10-23T07:28:47.175Z,87.70
2022-10-23T07:31:14.670Z,87.63
2022-10-23T07:33:41.935Z,87.54
2022-10-23T07:36:10.215Z,87.48
2022-10-23T07:38:37.507Z,87.52
2022-10-23T07:41:07.864Z,87.31
2022-10-23T07:43:38.032Z,87.24
2022-10-23T07:46:05.637Z,87.17
2022-10-23T07:48:32.979Z,87.04
2022-10-23T07:51:07.918Z,87.09
2022-10-23T07:53:35.596Z,87.04
2022-10-23T07:56:13.053Z,86.92
2022-10-23T07:58:40.255Z,86.73
2022-10-23T08:01:19.778Z,86.72
2022-10-23T08:03:47.056Z,86.76
2022-10-23T08:06:14.556Z,86.48
2022-10-23T08:08:41.783Z,86.39
2022-10-23T08:11:12.417Z,86.26
2022-10-23T08:13:39.724Z,86.12
2022-10-23T08:16:07.445Z,85.93
2022-10-23T08:18:34.686Z,85.84
2022-10-23T08:21:04.544Z,85.77
2022-10-23T08:23:31.837Z,85.45
2022-10-23T08:26:02.657Z,85.17
2022-10-23T08:28:29.815Z,85.23
2022-10-23T08:30:57.717Z,85.01
2022-10-23T08:33:25.636Z,84.86
2022-10-23T08:35:52.779Z,84.96
2022-10-23T08:38:19.885Z,84.72
2022-10-23T08:40:48.886Z,84.65
2022-10-23T08:43:41.304Z,84.44
2022-10-23T08:46:17.216Z,84.58
2022-10-23T08:48:53.496Z,84.78
2022-10-23T08:51:51.495Z,84.58
2022-10-23T08:54:40.258Z,84.08
2022-10-23T08:57:17.755Z,84.03
2022-10-23T09:00:12.923Z,83.81
2022-10-23T09:02:51.037Z,83.45
2022-10-23T09:05:31.354Z,83.09
2022-10-23T09:08:30.795Z,83.14
2022-10-23T09:11:22.635Z,82.81
2022-10-23T09:13:55.295Z,82.68
2022-10-23T09:16:43.944Z,82.06
2022-10-23T09:19:20.356Z,82.28
2022-10-23T09:21:49.962Z,82.48
2022-10-23T09:24:24.475Z,82.26
2022-10-23T09:26:54.305Z,81.90
2022-10-23T09:29:38.115Z,81.73
2022-10-23T09:32:07.116Z,81.05
2022-10-23T09:34:35.162Z,80.74
2022-10-23T09:37:21.438Z,80.30
2022-10-23T09:39:49.455Z,80.67
2022-10-23T09:42:25.815Z,80.01
2022-10-23T09:44:55.327Z,80.13
2022-10-23T09:47:25.644Z,80.27
2022-10-23T09:49:56.635Z,80.23
2022-10-23T09:52:37.195Z,80.02
2022-10-23T09:55:23.981Z,80.15
2022-10-23T09:57:53.636Z,79.70
2022-10-23T10:00:25.461Z,79.19
2022-10-23T10:03:05.455Z,78.29
2022-10-23T10:05:39.163Z,78.80
2022-10-23T10:08:31.284Z,78.58
2022-10-23T10:11:27.581Z,78.36
2022-10-23T10:14:15.694Z,78.15
2022-10-23T10:17:10.776Z,77.83
2022-10-23T10:20:10.167Z,77.53
2022-10-23T10:22:43.240Z,77.77
2022-10-23T10:25:34.615Z,77.67
2022-10-23T10:28:23.475Z,77.61
2022-10-23T10:31:25.740Z,77.85
2022-10-23T10:34:28.491Z,77.67
2022-10-23T10:37:05.835Z,77.60
2022-10-23T10:40:27.356Z,78.04
2022-10-23T10:43:33.795Z,78.11
2022-10-23T10:46:17.857Z,78.08
2022-10-23T10:49:07.223Z,78.31
2022-10-23T10:52:00.435Z,77.71
2022-10-23T10:54:42.571Z,77.72
2022-10-23T10:57:29.075Z,77.33
2022-10-23T11:00:03.234Z,77.13
2022-10-23T11:02:57.195Z,77.00
2022-10-23T11:05:42.817Z,76.59
2022-10-23T11:08:56.077Z,75.40
2022-10-23T11:11:35.775Z,75.83
2022-10-23T11:14:04.037Z,75.70
2022-10-23T11:16:39.164Z,75.66
2022-10-23T11:19:19.336Z,76.11
2022-10-23T11:22:28.057Z,76.67
2022-10-23T11:25:35.876Z,76.48
2022-10-23T11:29:31.003Z,76.46
2022-10-23T11:32:26.071Z,76.51
2022-10-23T11:35:20.455Z,76.06
2022-10-23T11:38:15.124Z,76.15
2022-10-23T11:43:48.138Z,76.18
2022-10-23T11:46:38.055Z,75.64
2022-10-23T11:49:20.020Z,75.11
2022-10-23T11:51:47.225Z,75.08
2022-10-23T11:54:17.375Z,75.27
2022-10-23T11:57:10.415Z,75.32
2022-10-23T11:59:55.576Z,75.27
2022-10-23T12:02:43.554Z,74.63
2022-10-23T12:05:38.137Z,74.87
2022-10-23T12:08:22.656Z,74.82
2022-10-23T12:10:52.657Z,74.82
2022-10-23T12:13:46.089Z,75.13
2022-10-23T12:16:14.100Z,75.61
2022-10-23T12:18:55.375Z,75.88
2022-10-23T12:21:28.157Z,75.24
2022-10-23T12:24:57.363Z,75.26
2022-10-23T12:27:35.952Z,75.60
2022-10-23T12:30:30.375Z,75.55
2022-10-23T12:33:34.915Z,75.71
2022-10-23T12:36:22.363Z,75.72
2022-10-23T12:38:50.315Z,75.60
2022-10-23T12:41:30.585Z,75.56
2022-10-23T12:44:04.055Z,75.22
2022-10-23T12:46:50.924Z,74.90
2022-10-23T12:49:25.181Z,74.50
2022-10-23T12:52:02.611Z,74.44
2022-10-23T12:54:39.456Z,74.54
2022-10-23T12:57:29.860Z,74.64
2022-10-23T13:00:02.654Z,74.88
2022-10-23T13:02:32.727Z,74.83
2022-10-23T13:05:05.077Z,74.55
2022-10-23T13:07:40.521Z,74.14
2022-10-23T13:10:16.015Z,74.28
2022-10-23T13:12:52.137Z,74.32
2022-10-23T13:15:22.182Z,74.43
2022-10-23T13:17:58.497Z,73.92
2022-10-23T13:20:34.839Z,73.47
2022-10-23T13:23:26.277Z,73.24
2022-10-23T13:26:26.017Z,73.65
2022-10-23T13:28:53.836Z,73.41
2022-10-23T13:31:21.097Z,73.78
2022-10-23T13:34:13.885Z,73.21
2022-10-23T13:36:53.666Z,73.42
2022-10-23T13:39:31.055Z,73.55
2022-10-23T13:42:14.696Z,73.64
2022-10-23T13:44:42.540Z,73.70
2022-10-23T13:47:14.195Z,73.49
2022-10-23T13:49:41.506Z,73.41
2022-10-23T13:52:13.924Z,73.67
2022-10-23T13:54:43.237Z,73.85
2022-10-23T13:57:15.568Z,73.67
2022-10-23T13:59:43.442Z,73.73
2022-10-23T14:02:22.520Z,74.14
2022-10-23T14:04:50.795Z,74.51
2022-10-23T14:07:18.599Z,74.67
2022-10-23T14:09:46.349Z,75.08
2022-10-23T14:12:13.839Z,75.19
2022-10-23T14:14:41.278Z,74.84
2022-10-23T14:17:09.144Z,74.59
2022-10-23T14:22:09.626Z,75.05
2022-10-23T14:24:40.127Z,75.18
2022-10-23T14:27:07.652Z,75.28
2022-10-23T14:29:35.435Z,75.25
2022-10-23T14:32:03.175Z,75.21
2022-10-23T14:34:31.115Z,75.27
2022-10-23T14:37:08.726Z,75.47
2022-10-23T14:39:37.174Z,75.49
2022-10-23T14:42:05.355Z,75.52
2022-10-23T14:44:33.116Z,75.46
2022-10-23T14:47:01.156Z,75.58
2022-10-23T14:49:29.395Z,75.79
2022-10-23T14:51:57.475Z,76.01
2022-10-23T14:54:25.155Z,76.22
2022-10-23T14:56:54.348Z,76.30
2022-10-23T14:59:23.040Z,76.40
2022-10-23T15:01:50.855Z,76.83
2022-10-23T15:04:18.259Z,77.08
2022-10-23T15:06:46.895Z,77.26
2022-10-23T15:09:15.235Z,77.43
2022-10-23T15:11:42.636Z,77.61
2022-10-23T15:14:10.243Z,77.93
2022-10-23T15:16:40.936Z,78.14
2022-10-23T15:19:17.395Z,78.55
2022-10-23T15:21:48.663Z,78.85
2022-10-23T15:24:17.506Z,79.23
2022-10-23T15:26:45.315Z,79.52
2022-10-23T15:29:14.374Z,79.63
2022-10-23T15:31:54.456Z,79.85
2022-10-23T15:34:26.422Z,80.04
2022-10-23T15:36:56.562Z,80.19
2022-10-23T15:39:33.438Z,80.20
2022-10-23T15:42:03.499Z,80.21
2022-10-23T15:44:32.713Z,80.18
2022-10-23T15:47:01.035Z,80.12
2022-10-23T15:49:29.277Z,80.32
2022-10-23T15:51:57.644Z,80.47
2022-10-23T15:54:42.817Z,80.41
2022-10-23T15:57:10.689Z,80.40
2022-10-23T15:59:38.218Z,80.42
2022-10-23T16:02:05.782Z,80.52
2022-10-23T16:04:33.932Z,80.69
2022-10-23T16:07:01.235Z,80.80
2022-10-23T16:09:29.817Z,80.90
2022-10-23T16:11:57.023Z,80.82
2022-10-23T16:14:24.386Z,80.78
2022-10-23T16:16:51.626Z,80.83
2022-10-23T16:19:19.079Z,80.98
2022-10-23T16:21:46.322Z,81.16
2022-10-23T16:24:13.942Z,81.53
2022-10-23T16:26:41.201Z,81.82
2022-10-23T16:29:09.758Z,81.90
2022-10-23T16:31:37.499Z,81.84
2022-10-23T16:34:05.970Z,81.88
2022-10-23T16:36:34.639Z,81.97
2022-10-23T16:39:03.282Z,81.98
2022-10-23T16:41:30.775Z,82.20
2022-10-23T16:43:58.516Z,82.30
2022-10-23T16:46:25.837Z,82.40
2022-10-23T16:48:53.738Z,82.49
2022-10-23T16:51:25.158Z,82.47
2022-10-23T16:53:57.136Z,82.52
2022-10-23T16:56:29.350Z,82.66
2022-10-23T17:01:30.799Z,82.87
2022-10-23T17:03:58.756Z,82.83
2022-10-23T17:06:32.376Z,83.00
2022-10-23T17:09:01.537Z,83.10
2022-10-23T17:11:36.256Z,83.18
2022-10-23T17:14:17.937Z,83.18
2022-10-23T17:16:51.078Z,83.39
2022-10-23T17:22:12.267Z,84.02
2022-10-23T17:24:41.170Z,84.13
2022-10-23T17:27:09.295Z,84.24
2022-10-23T17:29:36.637Z,84.39
2022-10-23T17:32:04.398Z,84.51
2022-10-23T17:34:31.696Z,84.62
2022-10-23T17:36:58.955Z,84.79
2022-10-23T17:39:29.400Z,85.16
2022-10-23T17:41:57.529Z,85.36
2022-10-23T17:44:25.079Z,85.44
2022-10-23T17:46:54.796Z,85.57
2022-10-23T17:49:24.701Z,85.64
2022-10-23T17:51:55.695Z,85.64
2022-10-23T17:54:25.842Z,85.70
2022-10-23T17:56:54.155Z,85.81
2022-10-23T17:59:22.275Z,85.90
2022-10-23T18:01:50.469Z,85.86
2022-10-23T18:04:21.277Z,85.79
2022-10-23T18:06:52.358Z,85.75
2022-10-23T18:09:21.996Z,85.93
2022-10-23T18:11:50.435Z,86.04
2022-10-23T18:14:21.243Z,86.12
2022-10-23T18:16:49.839Z,86.05
2022-10-23T18:19:18.925Z,85.98
2022-10-23T18:21:48.055Z,85.88
2022-10-23T18:24:16.136Z,85.89
2022-10-23T18:26:47.569Z,85.95
2022-10-23T18:29:17.752Z,86.11
2022-10-23T18:31:48.202Z,86.20
2022-10-23T18:34:22.795Z,86.20
2022-10-23T18:36:53.116Z,86.20
2022-10-23T18:39:24.176Z,86.19
2022-10-23T18:41:56.683Z,86.26
2022-10-23T18:44:28.469Z,86.47
2022-10-23T18:46:59.095Z,86.50
2022-10-23T18:49:27.618Z,86.44
2022-10-23T18:51:55.602Z,86.37
2022-10-23T18:54:23.064Z,86.29
2022-10-23T18:56:50.575Z,86.35
2022-10-23T18:59:20.662Z,86.72
2022-10-23T19:01:49.716Z,86.80
2022-10-23T19:04:18.108Z,86.80
2022-10-23T19:06:47.919Z,86.84
2022-10-23T19:09:15.995Z,86.77
2022-10-23T19:11:45.876Z,86.69
2022-10-23T19:14:13.751Z,86.52
2022-10-23T19:17:05.315Z,86.49
2022-10-23T19:19:45.571Z,86.32
2022-10-23T19:22:15.935Z,86.23
2022-10-23T19:24:54.077Z,86.09
2022-10-23T19:27:21.817Z,85.99
2022-10-23T19:29:52.915Z,85.90
2022-10-23T19:32:22.235Z,85.92
2022-10-23T19:34:50.243Z,85.99
2022-10-23T19:37:18.233Z,85.99
2022-10-23T19:39:45.996Z,86.00
2022-10-23T19:42:13.459Z,86.00
2022-10-23T19:44:40.960Z,85.97
2022-10-23T19:47:08.975Z,85.86
2022-10-23T19:49:36.949Z,85.82
2022-10-23T19:52:04.851Z,85.89
2022-10-23T19:54:32.516Z,86.00
2022-10-23T19:57:02.075Z,86.09
2022-10-23T19:59:29.635Z,86.07
2022-10-23T20:01:57.347Z,85.98
2022-10-23T20:04:24.991Z,85.90
2022-10-23T20:06:52.758Z,85.90
2022-10-23T20:09:20.976Z,85.90
2022-10-23T20:11:48.955Z,85.90
2022-10-23T20:14:18.855Z,85.83
2022-10-23T20:16:50.171Z,85.73
2022-10-23T20:19:21.328Z,85.63
2022-10-23T20:21:51.297Z,85.60
2022-10-23T20:24:21.265Z,85.60
2022-10-23T20:26:54.496Z,85.58
2022-10-23T20:29:24.760Z,85.51
2022-10-23T20:31:52.576Z,85.54
2022-10-23T20:34:20.154Z,85.51
2022-10-23T20:36:49.709Z,85.59
2022-10-23T20:39:25.439Z,85.64
2022-10-23T20:41:57.178Z,85.60
2022-10-23T20:44:24.748Z,85.58
2022-10-23T20:46:52.909Z,85.48
2022-10-23T20:49:21.441Z,85.38
2022-10-23T20:51:55.644Z,85.37
2022-10-23T20:54:28.743Z,85.37
2022-10-23T20:56:57.023Z,85.31
2022-10-23T20:59:25.217Z,85.27
2022-10-23T21:01:55.983Z,85.19
2022-10-23T21:04:28.026Z,85.12
2022-10-23T21:07:09.306Z,85.10
2022-10-23T21:09:40.637Z,85.11
2022-10-23T21:12:09.683Z,85.09
2022-10-23T21:14:38.825Z,85.08
2022-10-23T21:17:08.969Z,85.02
2022-10-23T21:19:40.382Z,84.98
2022-10-23T21:22:08.195Z,84.92
2022-10-23T21:24:35.476Z,85.03
2022-10-23T21:27:02.696Z,85.13
2022-10-23T21:29:29.997Z,85.14
2022-10-23T21:32:01.191Z,85.06
2022-10-23T21:34:29.417Z,85.00
2022-10-23T21:37:13.823Z,84.97
2022-10-23T21:39:45.979Z,84.91
2022-10-23T21:42:14.743Z,84.91
2022-10-23T21:44:43.117Z,84.94
2022-10-23T21:47:10.519Z,84.95
2022-10-23T21:49:37.861Z,84.90
2022-10-23T21:52:05.285Z,84.91
2022-10-23T21:54:32.835Z,84.90
2022-10-23T21:57:00.129Z,84.87
2022-10-23T22:00:19.862Z,84.86
2022-10-23T22:06:30.947Z,84.97
2022-10-23T22:09:18.078Z,84.80
2022-10-23T22:12:16.465Z,84.78
2022-10-23T22:14:55.826Z,84.82
2022-10-23T22:17:56.261Z,84.95
2022-10-23T22:20:32.908Z,84.99
2022-10-23T22:23:30.737Z,84.94
2022-10-23T22:26:34.023Z,84.91
2022-10-23T22:29:31.625Z,84.97
2022-10-23T22:32:09.732Z,85.09
2022-10-23T22:35:06.914Z,85.15
2022-10-23T22:37:47.049Z,85.10
2022-10-23T22:40:46.626Z,85.09
2022-10-23T22:43:25.262Z,85.08
2022-10-23T22:46:23.748Z,85.08
2022-10-23T22:52:02.468Z,85.10
2022-10-23T22:54:40.522Z,85.07
2022-10-23T22:57:40.031Z,85.02
2022-10-23T23:00:17.178Z,85.00
2022-10-23T23:03:15.157Z,85.02
2022-10-23T23:05:53.013Z,85.03
2022-10-23T23:08:52.162Z,85.01
2022-10-23T23:11:45.652Z,85.04
2022-10-23T23:14:28.453Z,85.00
2022-10-23T23:17:09.766Z,84.99
2022-10-23T23:20:07.748Z,84.99
2022-10-23T23:22:46.773Z,85.01
2022-10-23T23:25:47.926Z,85.05
2022-10-23T23:28:28.816Z,85.00
2022-10-23T23:31:26.931Z,84.94
2022-10-23T23:34:23.802Z,84.89
2022-10-23T23:37:03.120Z,84.82
2022-10-23T23:40:03.175Z,84.82
2022-10-23T23:42:40.119Z,84.90
2022-10-23T23:45:15.241Z,84.83
2022-10-23T23:48:00.553Z,84.74
2022-10-23T23:51:00.827Z,84.75
2022-10-23T23:53:40.321Z,84.67
2022-10-23T23:56:38.172Z,84.71
2022-10-23T23:59:19.350Z,84.74
